sensor_id;sensor_type;location;lat;lon;timestamp;P1;durP1;ratioP1;P2;durP2;ratioP2
20705;SDS011;10514;49.468;11.044;2023-12-20T00:02:24;7.40;;;4.10;;
20705;SDS011;10514;49.468;11.044;2023-12-20T00:04:50;7.23;;;3.83;;
20705;SDS011;10514;49.468;11.044;2023-12-20T00:07:16;7.17;;;3.60;;
20705;SDS011;10514;49.468;11.044;2023-12-20T00:09:43;6.60;;;3.80;;
20705;SDS011;10514;49.468;11.044;2023-12-20T00:12:09;5.37;;;3.40;;
20705;SDS011;10514;49.468;11.044;2023-12-20T00:14:35;5.50;;;3.30;;
20705;SDS011;10514;49.468;11.044;2023-12-20T00:17:01;8.47;;;3.27;;
20705;SDS011;10514;49.468;11.044;2023-12-20T00:19:27;6.83;;;3.80;;
20705;SDS011;10514;49.468;11.044;2023-12-20T00:21:53;7.17;;;3.50;;
20705;SDS011;10514;49.468;11.044;2023-12-20T00:24:19;7.27;;;3.50;;
20705;SDS011;10514;49.468;11.044;2023-12-20T00:26:45;7.60;;;3.73;;
20705;SDS011;10514;49.468;11.044;2023-12-20T00:29:11;7.40;;;3.77;;
20705;SDS011;10514;49.468;11.044;2023-12-20T00:31:37;7.37;;;3.63;;
20705;SDS011;10514;49.468;11.044;2023-12-20T00:34:03;6.07;;;3.50;;
20705;SDS011;10514;49.468;11.044;2023-12-20T00:36:29;5.47;;;3.40;;
20705;SDS011;10514;49.468;11.044;2023-12-20T00:38:55;6.70;;;3.67;;
20705;SDS011;10514;49.468;11.044;2023-12-20T00:41:21;7.87;;;3.73;;
20705;SDS011;10514;49.468;11.044;2023-12-20T00:43:46;7.10;;;3.50;;
20705;SDS011;10514;49.468;11.044;2023-12-20T00:46:12;7.67;;;3.27;;
20705;SDS011;10514;49.468;11.044;2023-12-20T00:48:38;7.33;;;3.40;;
20705;SDS011;10514;49.468;11.044;2023-12-20T00:51:07;4.80;;;3.10;;
20705;SDS011;10514;49.468;11.044;2023-12-20T00:53:33;7.53;;;3.70;;
20705;SDS011;10514;49.468;11.044;2023-12-20T00:55:59;7.73;;;3.50;;
20705;SDS011;10514;49.468;11.044;2023-12-20T00:58:25;5.60;;;3.00;;
20705;SDS011;10514;49.468;11.044;2023-12-20T01:00:52;8.10;;;3.40;;
20705;SDS011;10514;49.468;11.044;2023-12-20T01:03:18;8.03;;;3.63;;
20705;SDS011;10514;49.468;11.044;2023-12-20T01:05:44;6.23;;;3.40;;
20705;SDS011;10514;49.468;11.044;2023-12-20T01:08:10;5.67;;;3.10;;
20705;SDS011;10514;49.468;11.044;2023-12-20T01:10:37;4.83;;;3.00;;
20705;SDS011;10514;49.468;11.044;2023-12-20T01:13:03;5.40;;;2.73;;
20705;SDS011;10514;49.468;11.044;2023-12-20T01:15:29;5.83;;;2.93;;
20705;SDS011;10514;49.468;11.044;2023-12-20T01:17:55;4.33;;;2.60;;
20705;SDS011;10514;49.468;11.044;2023-12-20T01:20:23;7.07;;;2.37;;
20705;SDS011;10514;49.468;11.044;2023-12-20T01:22:49;4.97;;;2.47;;
20705;SDS011;10514;49.468;11.044;2023-12-20T01:25:15;4.53;;;2.33;;
20705;SDS011;10514;49.468;11.044;2023-12-20T01:27:41;3.53;;;2.10;;
20705;SDS011;10514;49.468;11.044;2023-12-20T01:30:07;4.30;;;2.00;;
20705;SDS011;10514;49.468;11.044;2023-12-20T01:32:33;3.27;;;1.83;;
20705;SDS011;10514;49.468;11.044;2023-12-20T01:34:59;3.27;;;2.10;;
20705;SDS011;10514;49.468;11.044;2023-12-20T01:37:25;3.13;;;1.97;;
20705;SDS011;10514;49.468;11.044;2023-12-20T01:39:51;3.13;;;1.80;;
20705;SDS011;10514;49.468;11.044;2023-12-20T01:42:18;2.73;;;1.77;;
20705;SDS011;10514;49.468;11.044;2023-12-20T01:44:43;2.53;;;1.60;;
20705;SDS011;10514;49.468;11.044;2023-12-20T01:47:09;3.60;;;1.70;;
20705;SDS011;10514;49.468;11.044;2023-12-20T01:49:35;2.57;;;1.43;;
20705;SDS011;10514;49.468;11.044;2023-12-20T01:52:01;4.10;;;1.70;;
20705;SDS011;10514;49.468;11.044;2023-12-20T01:54:27;1.70;;;1.37;;
20705;SDS011;10514;49.468;11.044;2023-12-20T01:56:53;2.23;;;1.20;;
20705;SDS011;10514;49.468;11.044;2023-12-20T01:59:19;2.60;;;1.50;;
20705;SDS011;10514;49.468;11.044;2023-12-20T02:01:46;2.10;;;1.40;;
20705;SDS011;10514;49.468;11.044;2023-12-20T02:04:12;2.23;;;1.30;;
20705;SDS011;10514;49.468;11.044;2023-12-20T02:06:38;2.10;;;1.40;;
20705;SDS011;10514;49.468;11.044;2023-12-20T02:09:05;1.67;;;1.40;;
20705;SDS011;10514;49.468;11.044;2023-12-20T02:11:32;2.03;;;1.30;;
20705;SDS011;10514;49.468;11.044;2023-12-20T02:14:00;2.23;;;1.20;;
20705;SDS011;10514;49.468;11.044;2023-12-20T02:16:26;2.13;;;1.20;;
20705;SDS011;10514;49.468;11.044;2023-12-20T02:18:52;1.90;;;0.97;;
20705;SDS011;10514;49.468;11.044;2023-12-20T02:21:19;1.30;;;1.10;;
20705;SDS011;10514;49.468;11.044;2023-12-20T02:24:11;1.60;;;0.90;;
20705;SDS011;10514;49.468;11.044;2023-12-20T02:26:37;0.97;;;0.87;;
20705;SDS011;10514;49.468;11.044;2023-12-20T02:29:03;2.50;;;1.30;;
20705;SDS011;10514;49.468;11.044;2023-12-20T02:31:29;1.10;;;1.00;;
20705;SDS011;10514;49.468;11.044;2023-12-20T02:33:55;2.43;;;0.90;;
20705;SDS011;10514;49.468;11.044;2023-12-20T02:36:21;1.70;;;1.07;;
20705;SDS011;10514;49.468;11.044;2023-12-20T02:38:47;0.87;;;0.83;;
20705;SDS011;10514;49.468;11.044;2023-12-20T02:41:13;1.03;;;0.77;;
20705;SDS011;10514;49.468;11.044;2023-12-20T02:43:40;0.70;;;0.70;;
20705;SDS011;10514;49.468;11.044;2023-12-20T02:46:06;1.37;;;0.70;;
20705;SDS011;10514;49.468;11.044;2023-12-20T02:48:32;1.83;;;0.60;;
20705;SDS011;10514;49.468;11.044;2023-12-20T02:50:58;1.10;;;0.70;;
20705;SDS011;10514;49.468;11.044;2023-12-20T02:53:24;0.83;;;0.70;;
20705;SDS011;10514;49.468;11.044;2023-12-20T02:55:49;1.10;;;0.70;;
20705;SDS011;10514;49.468;11.044;2023-12-20T02:58:15;0.40;;;0.40;;
20705;SDS011;10514;49.468;11.044;2023-12-20T03:00:42;1.57;;;0.70;;
20705;SDS011;10514;49.468;11.044;2023-12-20T03:03:08;0.80;;;0.80;;
20705;SDS011;10514;49.468;11.044;2023-12-20T03:05:34;1.67;;;0.63;;
20705;SDS011;10514;49.468;11.044;2023-12-20T03:08:00;0.70;;;0.70;;
20705;SDS011;10514;49.468;11.044;2023-12-20T03:10:25;0.77;;;0.77;;
20705;SDS011;10514;49.468;11.044;2023-12-20T03:12:51;0.87;;;0.60;;
20705;SDS011;10514;49.468;11.044;2023-12-20T03:15:17;1.13;;;0.90;;
20705;SDS011;10514;49.468;11.044;2023-12-20T03:17:43;0.60;;;0.60;;
20705;SDS011;10514;49.468;11.044;2023-12-20T03:20:09;0.50;;;0.50;;
20705;SDS011;10514;49.468;11.044;2023-12-20T03:22:35;0.77;;;0.47;;
20705;SDS011;10514;49.468;11.044;2023-12-20T03:25:00;0.70;;;0.60;;
20705;SDS011;10514;49.468;11.044;2023-12-20T03:27:26;0.50;;;0.50;;
20705;SDS011;10514;49.468;11.044;2023-12-20T03:29:52;0.60;;;0.60;;
20705;SDS011;10514;49.468;11.044;2023-12-20T03:32:18;0.60;;;0.50;;
20705;SDS011;10514;49.468;11.044;2023-12-20T03:34:44;0.70;;;0.60;;
20705;SDS011;10514;49.468;11.044;2023-12-20T03:37:10;0.57;;;0.50;;
20705;SDS011;10514;49.468;11.044;2023-12-20T03:39:36;0.50;;;0.50;;
20705;SDS011;10514;49.468;11.044;2023-12-20T03:42:02;0.63;;;0.60;;
20705;SDS011;10514;49.468;11.044;2023-12-20T03:44:28;0.80;;;0.80;;
20705;SDS011;10514;49.468;11.044;2023-12-20T03:46:54;0.70;;;0.60;;
20705;SDS011;10514;49.468;11.044;2023-12-20T03:49:20;0.50;;;0.50;;
20705;SDS011;10514;49.468;11.044;2023-12-20T03:51:45;0.67;;;0.57;;
20705;SDS011;10514;49.468;11.044;2023-12-20T03:54:11;2.03;;;0.70;;
20705;SDS011;10514;49.468;11.044;2023-12-20T03:56:37;1.00;;;0.60;;
20705;SDS011;10514;49.468;11.044;2023-12-20T03:59:03;0.90;;;0.73;;
20705;SDS011;10514;49.468;11.044;2023-12-20T04:01:29;2.20;;;0.97;;
20705;SDS011;10514;49.468;11.044;2023-12-20T04:03:55;0.73;;;0.73;;
20705;SDS011;10514;49.468;11.044;2023-12-20T04:06:21;0.50;;;0.50;;
20705;SDS011;10514;49.468;11.044;2023-12-20T04:08:47;1.53;;;0.70;;
20705;SDS011;10514;49.468;11.044;2023-12-20T04:11:13;1.20;;;0.70;;
20705;SDS011;10514;49.468;11.044;2023-12-20T04:13:38;1.30;;;0.80;;
20705;SDS011;10514;49.468;11.044;2023-12-20T04:16:04;1.50;;;0.67;;
20705;SDS011;10514;49.468;11.044;2023-12-20T04:18:30;0.80;;;0.70;;
20705;SDS011;10514;49.468;11.044;2023-12-20T04:20:57;0.73;;;0.73;;
20705;SDS011;10514;49.468;11.044;2023-12-20T04:23:22;0.50;;;0.50;;
20705;SDS011;10514;49.468;11.044;2023-12-20T04:25:48;0.50;;;0.50;;
20705;SDS011;10514;49.468;11.044;2023-12-20T04:28:14;1.20;;;0.73;;
20705;SDS011;10514;49.468;11.044;2023-12-20T04:30:40;1.03;;;0.80;;
20705;SDS011;10514;49.468;11.044;2023-12-20T04:33:06;0.70;;;0.70;;
20705;SDS011;10514;49.468;11.044;2023-12-20T04:35:32;1.63;;;1.10;;
20705;SDS011;10514;49.468;11.044;2023-12-20T04:37:58;0.83;;;0.70;;
20705;SDS011;10514;49.468;11.044;2023-12-20T04:40:23;1.20;;;0.90;;
20705;SDS011;10514;49.468;11.044;2023-12-20T04:42:49;1.17;;;0.60;;
20705;SDS011;10514;49.468;11.044;2023-12-20T04:45:15;1.47;;;0.90;;
20705;SDS011;10514;49.468;11.044;2023-12-20T04:47:42;1.00;;;0.83;;
20705;SDS011;10514;49.468;11.044;2023-12-20T04:50:08;1.90;;;0.63;;
20705;SDS011;10514;49.468;11.044;2023-12-20T04:52:34;0.90;;;0.73;;
20705;SDS011;10514;49.468;11.044;2023-12-20T04:55:01;0.87;;;0.70;;
20705;SDS011;10514;49.468;11.044;2023-12-20T04:57:27;0.77;;;0.70;;
20705;SDS011;10514;49.468;11.044;2023-12-20T04:59:52;1.10;;;0.90;;
20705;SDS011;10514;49.468;11.044;2023-12-20T05:02:18;0.90;;;0.83;;
20705;SDS011;10514;49.468;11.044;2023-12-20T05:04:44;0.70;;;0.70;;
20705;SDS011;10514;49.468;11.044;2023-12-20T05:07:11;0.83;;;0.70;;
20705;SDS011;10514;49.468;11.044;2023-12-20T05:09:37;0.70;;;0.70;;
20705;SDS011;10514;49.468;11.044;2023-12-20T05:12:02;1.07;;;0.70;;
20705;SDS011;10514;49.468;11.044;2023-12-20T05:14:28;1.27;;;0.90;;
20705;SDS011;10514;49.468;11.044;2023-12-20T05:16:54;1.57;;;0.60;;
20705;SDS011;10514;49.468;11.044;2023-12-20T05:19:20;0.80;;;0.60;;
20705;SDS011;10514;49.468;11.044;2023-12-20T05:21:46;2.43;;;1.20;;
20705;SDS011;10514;49.468;11.044;2023-12-20T05:24:12;1.20;;;0.80;;
20705;SDS011;10514;49.468;11.044;2023-12-20T05:26:38;0.77;;;0.67;;
20705;SDS011;10514;49.468;11.044;2023-12-20T05:29:03;1.10;;;0.80;;
20705;SDS011;10514;49.468;11.044;2023-12-20T05:31:30;0.80;;;0.80;;
20705;SDS011;10514;49.468;11.044;2023-12-20T05:33:56;1.67;;;0.80;;
20705;SDS011;10514;49.468;11.044;2023-12-20T05:36:22;1.60;;;0.80;;
20705;SDS011;10514;49.468;11.044;2023-12-20T05:38:48;1.27;;;1.00;;
20705;SDS011;10514;49.468;11.044;2023-12-20T05:41:14;1.03;;;0.70;;
20705;SDS011;10514;49.468;11.044;2023-12-20T05:43:40;1.03;;;0.90;;
20705;SDS011;10514;49.468;11.044;2023-12-20T05:46:06;0.90;;;0.83;;
20705;SDS011;10514;49.468;11.044;2023-12-20T05:48:32;0.87;;;0.83;;
20705;SDS011;10514;49.468;11.044;2023-12-20T05:50:57;0.97;;;0.87;;
20705;SDS011;10514;49.468;11.044;2023-12-20T05:53:23;1.40;;;0.90;;
20705;SDS011;10514;49.468;11.044;2023-12-20T05:55:49;1.37;;;1.10;;
20705;SDS011;10514;49.468;11.044;2023-12-20T05:58:15;1.97;;;1.00;;
20705;SDS011;10514;49.468;11.044;2023-12-20T06:00:40;1.20;;;0.93;;
20705;SDS011;10514;49.468;11.044;2023-12-20T06:03:06;1.63;;;1.00;;
20705;SDS011;10514;49.468;11.044;2023-12-20T06:05:32;2.37;;;1.00;;
20705;SDS011;10514;49.468;11.044;2023-12-20T06:07:58;1.40;;;1.20;;
20705;SDS011;10514;49.468;11.044;2023-12-20T06:10:27;2.37;;;1.27;;
20705;SDS011;10514;49.468;11.044;2023-12-20T06:12:53;2.63;;;1.63;;
20705;SDS011;10514;49.468;11.044;2023-12-20T06:15:20;2.17;;;1.20;;
20705;SDS011;10514;49.468;11.044;2023-12-20T06:17:45;1.57;;;1.00;;
20705;SDS011;10514;49.468;11.044;2023-12-20T06:20:11;1.50;;;1.10;;
20705;SDS011;10514;49.468;11.044;2023-12-20T06:22:38;1.50;;;1.20;;
20705;SDS011;10514;49.468;11.044;2023-12-20T06:25:04;3.30;;;1.60;;
20705;SDS011;10514;49.468;11.044;2023-12-20T06:27:30;1.80;;;1.47;;
20705;SDS011;10514;49.468;11.044;2023-12-20T06:29:57;1.53;;;1.20;;
20705;SDS011;10514;49.468;11.044;2023-12-20T06:32:24;2.67;;;1.90;;
20705;SDS011;10514;49.468;11.044;2023-12-20T06:34:50;2.70;;;2.00;;
20705;SDS011;10514;49.468;11.044;2023-12-20T06:37:15;1.70;;;1.60;;
20705;SDS011;10514;49.468;11.044;2023-12-20T06:39:41;3.33;;;2.03;;
20705;SDS011;10514;49.468;11.044;2023-12-20T06:42:07;2.57;;;2.20;;
20705;SDS011;10514;49.468;11.044;2023-12-20T06:44:33;4.13;;;2.67;;
20705;SDS011;10514;49.468;11.044;2023-12-20T06:46:59;2.80;;;1.97;;
20705;SDS011;10514;49.468;11.044;2023-12-20T06:49:25;2.53;;;1.90;;
20705;SDS011;10514;49.468;11.044;2023-12-20T06:51:51;2.57;;;2.20;;
20705;SDS011;10514;49.468;11.044;2023-12-20T06:54:16;2.57;;;1.70;;
20705;SDS011;10514;49.468;11.044;2023-12-20T06:56:42;2.47;;;2.03;;
20705;SDS011;10514;49.468;11.044;2023-12-20T06:59:08;2.70;;;2.20;;
20705;SDS011;10514;49.468;11.044;2023-12-20T07:01:34;4.00;;;2.10;;
20705;SDS011;10514;49.468;11.044;2023-12-20T07:04:00;4.53;;;2.13;;
20705;SDS011;10514;49.468;11.044;2023-12-20T07:06:26;2.63;;;2.10;;
20705;SDS011;10514;49.468;11.044;2023-12-20T07:08:52;3.00;;;2.50;;
20705;SDS011;10514;49.468;11.044;2023-12-20T07:11:18;2.70;;;1.93;;
20705;SDS011;10514;49.468;11.044;2023-12-20T07:13:44;3.57;;;2.50;;
20705;SDS011;10514;49.468;11.044;2023-12-20T07:16:10;3.03;;;2.20;;
20705;SDS011;10514;49.468;11.044;2023-12-20T07:18:35;3.27;;;1.93;;
20705;SDS011;10514;49.468;11.044;2023-12-20T07:21:01;2.37;;;1.70;;
20705;SDS011;10514;49.468;11.044;2023-12-20T07:23:27;2.47;;;2.00;;
20705;SDS011;10514;49.468;11.044;2023-12-20T07:25:53;2.93;;;2.20;;
20705;SDS011;10514;49.468;11.044;2023-12-20T07:28:18;3.63;;;2.50;;
20705;SDS011;10514;49.468;11.044;2023-12-20T07:30:44;3.43;;;2.50;;
20705;SDS011;10514;49.468;11.044;2023-12-20T07:33:10;5.53;;;2.70;;
20705;SDS011;10514;49.468;11.044;2023-12-20T07:35:37;4.40;;;2.30;;
20705;SDS011;10514;49.468;11.044;2023-12-20T07:38:03;4.10;;;2.57;;
20705;SDS011;10514;49.468;11.044;2023-12-20T07:40:29;4.00;;;2.30;;
20705;SDS011;10514;49.468;11.044;2023-12-20T07:42:55;3.53;;;2.50;;
20705;SDS011;10514;49.468;11.044;2023-12-20T07:45:21;3.90;;;3.03;;
20705;SDS011;10514;49.468;11.044;2023-12-20T07:47:47;4.40;;;3.27;;
20705;SDS011;10514;49.468;11.044;2023-12-20T07:50:14;3.43;;;2.80;;
20705;SDS011;10514;49.468;11.044;2023-12-20T07:52:39;4.00;;;2.93;;
20705;SDS011;10514;49.468;11.044;2023-12-20T07:55:05;4.70;;;3.20;;
20705;SDS011;10514;49.468;11.044;2023-12-20T07:57:31;4.07;;;3.30;;
20705;SDS011;10514;49.468;11.044;2023-12-20T07:59:57;5.17;;;2.90;;
20705;SDS011;10514;49.468;11.044;2023-12-20T08:02:23;3.67;;;2.63;;
20705;SDS011;10514;49.468;11.044;2023-12-20T08:04:49;5.20;;;2.73;;
20705;SDS011;10514;49.468;11.044;2023-12-20T08:07:15;6.67;;;3.03;;
20705;SDS011;10514;49.468;11.044;2023-12-20T08:09:41;4.30;;;2.70;;
20705;SDS011;10514;49.468;11.044;2023-12-20T08:12:08;4.90;;;2.90;;
20705;SDS011;10514;49.468;11.044;2023-12-20T08:14:34;3.03;;;2.40;;
20705;SDS011;10514;49.468;11.044;2023-12-20T08:17:00;3.90;;;2.77;;
20705;SDS011;10514;49.468;11.044;2023-12-20T08:19:26;4.60;;;2.83;;
20705;SDS011;10514;49.468;11.044;2023-12-20T08:21:52;3.90;;;3.03;;
20705;SDS011;10514;49.468;11.044;2023-12-20T08:24:18;3.20;;;2.67;;
20705;SDS011;10514;49.468;11.044;2023-12-20T08:26:43;5.03;;;3.13;;
20705;SDS011;10514;49.468;11.044;2023-12-20T08:29:12;4.63;;;2.63;;
20705;SDS011;10514;49.468;11.044;2023-12-20T08:31:38;3.57;;;2.43;;
20705;SDS011;10514;49.468;11.044;2023-12-20T08:34:04;2.90;;;2.20;;
20705;SDS011;10514;49.468;11.044;2023-12-20T08:36:30;2.93;;;2.13;;
20705;SDS011;10514;49.468;11.044;2023-12-20T08:38:56;4.30;;;2.30;;
20705;SDS011;10514;49.468;11.044;2023-12-20T08:41:22;3.97;;;2.60;;
20705;SDS011;10514;49.468;11.044;2023-12-20T08:43:47;2.73;;;2.23;;
20705;SDS011;10514;49.468;11.044;2023-12-20T08:46:14;3.90;;;2.50;;
20705;SDS011;10514;49.468;11.044;2023-12-20T08:48:40;3.23;;;2.30;;
20705;SDS011;10514;49.468;11.044;2023-12-20T08:51:06;3.23;;;2.40;;
20705;SDS011;10514;49.468;11.044;2023-12-20T08:53:33;4.50;;;2.90;;
20705;SDS011;10514;49.468;11.044;2023-12-20T08:55:59;4.43;;;2.07;;
20705;SDS011;10514;49.468;11.044;2023-12-20T08:58:26;2.87;;;2.00;;
20705;SDS011;10514;49.468;11.044;2023-12-20T09:00:52;4.27;;;2.00;;
20705;SDS011;10514;49.468;11.044;2023-12-20T09:03:18;2.77;;;1.80;;
20705;SDS011;10514;49.468;11.044;2023-12-20T09:05:44;3.43;;;2.03;;
20705;SDS011;10514;49.468;11.044;2023-12-20T09:08:10;2.33;;;1.97;;
20705;SDS011;10514;49.468;11.044;2023-12-20T09:10:35;4.17;;;2.23;;
20705;SDS011;10514;49.468;11.044;2023-12-20T09:13:02;3.20;;;2.27;;
20705;SDS011;10514;49.468;11.044;2023-12-20T09:15:29;3.17;;;2.13;;
20705;SDS011;10514;49.468;11.044;2023-12-20T09:17:55;3.37;;;2.00;;
20705;SDS011;10514;49.468;11.044;2023-12-20T09:20:20;4.47;;;1.77;;
20705;SDS011;10514;49.468;11.044;2023-12-20T09:22:48;3.10;;;2.00;;
20705;SDS011;10514;49.468;11.044;2023-12-20T09:25:14;3.43;;;1.80;;
20705;SDS011;10514;49.468;11.044;2023-12-20T09:27:40;3.00;;;1.80;;
20705;SDS011;10514;49.468;11.044;2023-12-20T09:30:07;3.53;;;1.80;;
20705;SDS011;10514;49.468;11.044;2023-12-20T09:32:32;2.10;;;1.60;;
20705;SDS011;10514;49.468;11.044;2023-12-20T09:34:58;4.00;;;1.80;;
20705;SDS011;10514;49.468;11.044;2023-12-20T09:37:26;3.40;;;1.70;;
20705;SDS011;10514;49.468;11.044;2023-12-20T09:39:52;2.03;;;1.37;;
20705;SDS011;10514;49.468;11.044;2023-12-20T09:42:21;5.57;;;1.60;;
20705;SDS011;10514;49.468;11.044;2023-12-20T09:44:54;5.33;;;1.60;;
20705;SDS011;10514;49.468;11.044;2023-12-20T09:47:22;2.90;;;1.30;;
20705;SDS011;10514;49.468;11.044;2023-12-20T09:49:50;3.43;;;1.67;;
20705;SDS011;10514;49.468;11.044;2023-12-20T09:52:16;4.67;;;1.40;;
20705;SDS011;10514;49.468;11.044;2023-12-20T09:54:43;2.47;;;1.60;;
20705;SDS011;10514;49.468;11.044;2023-12-20T09:57:10;3.10;;;1.30;;
20705;SDS011;10514;49.468;11.044;2023-12-20T09:59:36;1.80;;;1.23;;
20705;SDS011;10514;49.468;11.044;2023-12-20T10:02:01;4.13;;;1.20;;
20705;SDS011;10514;49.468;11.044;2023-12-20T10:04:32;4.87;;;1.30;;
20705;SDS011;10514;49.468;11.044;2023-12-20T10:07:01;4.20;;;1.37;;
20705;SDS011;10514;49.468;11.044;2023-12-20T10:09:30;2.10;;;0.97;;
20705;SDS011;10514;49.468;11.044;2023-12-20T10:11:57;1.60;;;1.07;;
20705;SDS011;10514;49.468;11.044;2023-12-20T10:14:23;4.40;;;1.20;;
20705;SDS011;10514;49.468;11.044;2023-12-20T10:16:49;3.97;;;1.20;;
20705;SDS011;10514;49.468;11.044;2023-12-20T10:19:19;1.30;;;0.83;;
20705;SDS011;10514;49.468;11.044;2023-12-20T10:21:44;3.33;;;1.00;;
20705;SDS011;10514;49.468;11.044;2023-12-20T10:24:11;2.60;;;1.27;;
20705;SDS011;10514;49.468;11.044;2023-12-20T10:26:42;3.07;;;1.00;;
20705;SDS011;10514;49.468;11.044;2023-12-20T10:29:08;1.97;;;1.00;;
20705;SDS011;10514;49.468;11.044;2023-12-20T10:31:34;2.43;;;1.03;;
20705;SDS011;10514;49.468;11.044;2023-12-20T10:34:00;2.87;;;1.10;;
20705;SDS011;10514;49.468;11.044;2023-12-20T10:36:31;4.10;;;0.90;;
20705;SDS011;10514;49.468;11.044;2023-12-20T10:38:57;5.13;;;1.20;;
20705;SDS011;10514;49.468;11.044;2023-12-20T10:41:30;4.50;;;0.90;;
20705;SDS011;10514;49.468;11.044;2023-12-20T10:43:58;5.57;;;1.17;;
20705;SDS011;10514;49.468;11.044;2023-12-20T10:46:26;4.57;;;1.17;;
20705;SDS011;10514;49.468;11.044;2023-12-20T10:48:53;3.97;;;1.63;;
20705;SDS011;10514;49.468;11.044;2023-12-20T10:51:20;4.00;;;0.97;;
20705;SDS011;10514;49.468;11.044;2023-12-20T10:53:49;2.13;;;1.00;;
20705;SDS011;10514;49.468;11.044;2023-12-20T10:56:16;4.50;;;1.10;;
20705;SDS011;10514;49.468;11.044;2023-12-20T10:58:49;4.07;;;1.03;;
20705;SDS011;10514;49.468;11.044;2023-12-20T11:01:16;5.33;;;1.80;;
20705;SDS011;10514;49.468;11.044;2023-12-20T11:03:48;2.47;;;1.08;;
20705;SDS011;10514;49.468;11.044;2023-12-20T11:09:04;3.37;;;1.23;;
20705;SDS011;10514;49.468;11.044;2023-12-20T11:11:58;4.53;;;1.80;;
20705;SDS011;10514;49.468;11.044;2023-12-20T11:14:38;4.47;;;1.23;;
20705;SDS011;10514;49.468;11.044;2023-12-20T11:17:11;3.50;;;1.10;;
20705;SDS011;10514;49.468;11.044;2023-12-20T11:24:53;3.43;;;1.10;;
20705;SDS011;10514;49.468;11.044;2023-12-20T11:27:19;3.43;;;1.10;;
20705;SDS011;10514;49.468;11.044;2023-12-20T11:29:52;2.13;;;1.00;;
20705;SDS011;10514;49.468;11.044;2023-12-20T11:35:32;2.60;;;1.20;;
20705;SDS011;10514;49.468;11.044;2023-12-20T11:37:39;4.80;;;1.03;;
20705;SDS011;10514;49.468;11.044;2023-12-20T11:40:08;3.73;;;1.07;;
20705;SDS011;10514;49.468;11.044;2023-12-20T11:42:40;3.80;;;1.10;;
20705;SDS011;10514;49.468;11.044;2023-12-20T11:45:09;3.57;;;1.00;;
20705;SDS011;10514;49.468;11.044;2023-12-20T11:47:36;2.70;;;1.00;;
20705;SDS011;10514;49.468;11.044;2023-12-20T11:50:02;7.73;;;1.40;;
20705;SDS011;10514;49.468;11.044;2023-12-20T11:52:28;4.20;;;1.00;;
20705;SDS011;10514;49.468;11.044;2023-12-20T11:54:54;6.83;;;1.13;;
20705;SDS011;10514;49.468;11.044;2023-12-20T11:57:20;7.77;;;2.50;;
20705;SDS011;10514;49.468;11.044;2023-12-20T11:59:46;6.53;;;2.20;;
20705;SDS011;10514;49.468;11.044;2023-12-20T12:02:12;9.00;;;4.53;;
20705;SDS011;10514;49.468;11.044;2023-12-20T12:04:40;5.17;;;1.90;;
20705;SDS011;10514;49.468;11.044;2023-12-20T12:07:06;6.10;;;1.63;;
20705;SDS011;10514;49.468;11.044;2023-12-20T12:09:32;6.27;;;1.83;;
20705;SDS011;10514;49.468;11.044;2023-12-20T12:11:58;7.47;;;1.63;;
20705;SDS011;10514;49.468;11.044;2023-12-20T12:14:24;4.50;;;1.33;;
20705;SDS011;10514;49.468;11.044;2023-12-20T12:16:50;5.80;;;1.40;;
20705;SDS011;10514;49.468;11.044;2023-12-20T12:19:24;4.57;;;1.70;;
20705;SDS011;10514;49.468;11.044;2023-12-20T12:21:51;4.57;;;1.73;;
20705;SDS011;10514;49.468;11.044;2023-12-20T12:24:42;4.97;;;1.80;;
20705;SDS011;10514;49.468;11.044;2023-12-20T12:27:09;3.33;;;1.67;;
20705;SDS011;10514;49.468;11.044;2023-12-20T12:29:35;4.47;;;1.30;;
20705;SDS011;10514;49.468;11.044;2023-12-20T12:32:04;3.97;;;1.23;;
20705;SDS011;10514;49.468;11.044;2023-12-20T12:34:33;5.47;;;2.17;;
20705;SDS011;10514;49.468;11.044;2023-12-20T12:37:00;4.83;;;1.50;;
20705;SDS011;10514;49.468;11.044;2023-12-20T12:39:26;2.87;;;1.30;;
20705;SDS011;10514;49.468;11.044;2023-12-20T12:41:51;3.67;;;1.40;;
20705;SDS011;10514;49.468;11.044;2023-12-20T12:44:18;6.40;;;1.13;;
20705;SDS011;10514;49.468;11.044;2023-12-20T12:46:47;2.93;;;1.23;;
20705;SDS011;10514;49.468;11.044;2023-12-20T12:49:15;5.20;;;1.30;;
20705;SDS011;10514;49.468;11.044;2023-12-20T12:51:41;4.10;;;1.40;;
20705;SDS011;10514;49.468;11.044;2023-12-20T12:54:07;4.20;;;2.03;;
20705;SDS011;10514;49.468;11.044;2023-12-20T12:56:33;4.33;;;1.63;;
20705;SDS011;10514;49.468;11.044;2023-12-20T12:58:59;3.00;;;1.13;;
20705;SDS011;10514;49.468;11.044;2023-12-20T13:01:25;2.70;;;1.27;;
20705;SDS011;10514;49.468;11.044;2023-12-20T13:03:51;2.33;;;1.40;;
20705;SDS011;10514;49.468;11.044;2023-12-20T13:06:17;3.87;;;1.60;;
20705;SDS011;10514;49.468;11.044;2023-12-20T13:08:43;7.20;;;2.00;;
20705;SDS011;10514;49.468;11.044;2023-12-20T13:11:09;2.07;;;1.30;;
20705;SDS011;10514;49.468;11.044;2023-12-20T13:13:35;2.97;;;1.20;;
20705;SDS011;10514;49.468;11.044;2023-12-20T13:16:01;6.37;;;2.27;;
20705;SDS011;10514;49.468;11.044;2023-12-20T13:18:27;3.73;;;1.40;;
20705;SDS011;10514;49.468;11.044;2023-12-20T13:20:53;4.60;;;1.20;;
20705;SDS011;10514;49.468;11.044;2023-12-20T13:23:19;3.77;;;1.20;;
20705;SDS011;10514;49.468;11.044;2023-12-20T13:25:45;2.47;;;1.20;;
20705;SDS011;10514;49.468;11.044;2023-12-20T13:28:11;5.87;;;1.40;;
20705;SDS011;10514;49.468;11.044;2023-12-20T13:30:37;5.87;;;1.63;;
20705;SDS011;10514;49.468;11.044;2023-12-20T13:33:03;4.17;;;1.30;;
20705;SDS011;10514;49.468;11.044;2023-12-20T13:35:30;2.53;;;1.40;;
20705;SDS011;10514;49.468;11.044;2023-12-20T13:37:56;2.57;;;1.13;;
20705;SDS011;10514;49.468;11.044;2023-12-20T13:40:22;1.43;;;0.93;;
20705;SDS011;10514;49.468;11.044;2023-12-20T13:42:48;6.83;;;1.40;;
20705;SDS011;10514;49.468;11.044;2023-12-20T13:45:13;4.57;;;1.30;;
20705;SDS011;10514;49.468;11.044;2023-12-20T13:47:39;4.47;;;1.00;;
20705;SDS011;10514;49.468;11.044;2023-12-20T13:50:05;3.70;;;1.50;;
20705;SDS011;10514;49.468;11.044;2023-12-20T13:52:31;4.37;;;1.13;;
20705;SDS011;10514;49.468;11.044;2023-12-20T13:54:57;2.83;;;1.20;;
20705;SDS011;10514;49.468;11.044;2023-12-20T13:57:23;2.57;;;1.07;;
20705;SDS011;10514;49.468;11.044;2023-12-20T13:59:49;2.97;;;1.07;;
20705;SDS011;10514;49.468;11.044;2023-12-20T14:02:14;5.53;;;1.43;;
20705;SDS011;10514;49.468;11.044;2023-12-20T14:04:41;4.77;;;1.70;;
20705;SDS011;10514;49.468;11.044;2023-12-20T14:07:07;2.73;;;0.87;;
20705;SDS011;10514;49.468;11.044;2023-12-20T14:09:33;3.33;;;1.10;;
20705;SDS011;10514;49.468;11.044;2023-12-20T14:11:59;1.97;;;1.00;;
20705;SDS011;10514;49.468;11.044;2023-12-20T14:14:24;2.80;;;1.00;;
20705;SDS011;10514;49.468;11.044;2023-12-20T14:16:50;2.90;;;1.00;;
20705;SDS011;10514;49.468;11.044;2023-12-20T14:19:16;4.60;;;1.30;;
20705;SDS011;10514;49.468;11.044;2023-12-20T14:21:42;4.00;;;1.57;;
20705;SDS011;10514;49.468;11.044;2023-12-20T14:24:10;3.00;;;1.23;;
20705;SDS011;10514;49.468;11.044;2023-12-20T14:26:36;5.77;;;1.63;;
20705;SDS011;10514;49.468;11.044;2023-12-20T14:29:02;5.87;;;1.90;;
20705;SDS011;10514;49.468;11.044;2023-12-20T14:31:29;2.83;;;1.20;;
20705;SDS011;10514;49.468;11.044;2023-12-20T14:33:54;3.80;;;1.10;;
20705;SDS011;10514;49.468;11.044;2023-12-20T14:36:21;2.63;;;1.50;;
20705;SDS011;10514;49.468;11.044;2023-12-20T14:38:46;2.57;;;1.10;;
20705;SDS011;10514;49.468;11.044;2023-12-20T14:41:14;3.80;;;1.40;;